sensor_id;sensor_type;location;lat;lon;timestamp;P1;durP1;ratioP1;P2;durP2;ratioP2
68475;SDS011;55464;48.266;14.188;2023-06-19T00:01:59;5.53;;;4.60;;
68475;SDS011;55464;48.266;14.188;2023-06-19T00:04:25;8.50;;;5.45;;
68475;SDS011;55464;48.266;14.188;2023-06-19T00:06:51;8.60;;;5.07;;
68475;SDS011;55464;48.266;14.188;2023-06-19T00:09:17;6.15;;;5.05;;
68475;SDS011;55464;48.266;14.188;2023-06-19T00:11:43;9.35;;;5.00;;
68475;SDS011;55464;48.266;14.188;2023-06-19T00:14:08;8.05;;;4.72;;
68475;SDS011;55464;48.266;14.188;2023-06-19T00:16:34;5.72;;;4.57;;
68475;SDS011;55464;48.266;14.188;2023-06-19T00:18:59;7.07;;;5.88;;
68475;SDS011;55464;48.266;14.188;2023-06-19T00:21:25;6.13;;;4.90;;
68475;SDS011;55464;48.266;14.188;2023-06-19T00:23:51;6.32;;;5.20;;
68475;SDS011;55464;48.266;14.188;2023-06-19T00:26:17;5.50;;;4.70;;
68475;SDS011;55464;48.266;14.188;2023-06-19T00:28:47;5.85;;;4.97;;
68475;SDS011;55464;48.266;14.188;2023-06-19T00:31:16;8.50;;;5.38;;
68475;SDS011;55464;48.266;14.188;2023-06-19T00:33:43;10.32;;;5.93;;
68475;SDS011;55464;48.266;14.188;2023-06-19T00:36:12;6.53;;;5.25;;
68475;SDS011;55464;48.266;14.188;2023-06-19T00:41:04;5.55;;;4.60;;
68475;SDS011;55464;48.266;14.188;2023-06-19T00:43:30;7.57;;;5.03;;
68475;SDS011;55464;48.266;14.188;2023-06-19T00:45:59;7.32;;;5.25;;
68475;SDS011;55464;48.266;14.188;2023-06-19T00:48:28;6.27;;;5.63;;
68475;SDS011;55464;48.266;14.188;2023-06-19T00:50:58;5.35;;;4.57;;
68475;SDS011;55464;48.266;14.188;2023-06-19T00:53:24;7.43;;;5.40;;
68475;SDS011;55464;48.266;14.188;2023-06-19T00:55:51;9.77;;;5.50;;
68475;SDS011;55464;48.266;14.188;2023-06-19T00:58:18;9.45;;;6.05;;
68475;SDS011;55464;48.266;14.188;2023-06-19T01:00:44;7.13;;;5.35;;
68475;SDS011;55464;48.266;14.188;2023-06-19T01:03:10;8.32;;;5.10;;
68475;SDS011;55464;48.266;14.188;2023-06-19T01:05:35;6.32;;;5.68;;
68475;SDS011;55464;48.266;14.188;2023-06-19T01:10:58;8.60;;;5.90;;
68475;SDS011;55464;48.266;14.188;2023-06-19T01:16:02;6.25;;;5.45;;
68475;SDS011;55464;48.266;14.188;2023-06-19T01:18:29;8.38;;;5.10;;
68475;SDS011;55464;48.266;14.188;2023-06-19T01:21:14;6.80;;;5.63;;
68475;SDS011;55464;48.266;14.188;2023-06-19T01:23:41;8.27;;;5.50;;
68475;SDS011;55464;48.266;14.188;2023-06-19T01:26:07;6.43;;;5.35;;
68475;SDS011;55464;48.266;14.188;2023-06-19T01:28:36;10.98;;;6.10;;
68475;SDS011;55464;48.266;14.188;2023-06-19T01:31:16;7.57;;;5.50;;
68475;SDS011;55464;48.266;14.188;2023-06-19T01:33:45;9.73;;;5.95;;
68475;SDS011;55464;48.266;14.188;2023-06-19T01:36:15;8.00;;;5.50;;
68475;SDS011;55464;48.266;14.188;2023-06-19T01:38:43;7.15;;;5.75;;
68475;SDS011;55464;48.266;14.188;2023-06-19T01:41:10;7.50;;;5.75;;
68475;SDS011;55464;48.266;14.188;2023-06-19T01:43:36;7.90;;;5.63;;
68475;SDS011;55464;48.266;14.188;2023-06-19T01:46:02;7.18;;;5.82;;
68475;SDS011;55464;48.266;14.188;2023-06-19T01:48:28;9.23;;;6.22;;
68475;SDS011;55464;48.266;14.188;2023-06-19T01:50:53;10.05;;;6.03;;
68475;SDS011;55464;48.266;14.188;2023-06-19T01:53:19;8.60;;;6.28;;
68475;SDS011;55464;48.266;14.188;2023-06-19T01:55:44;7.07;;;6.18;;
68475;SDS011;55464;48.266;14.188;2023-06-19T01:58:10;8.15;;;6.13;;
68475;SDS011;55464;48.266;14.188;2023-06-19T02:00:36;6.80;;;5.78;;
68475;SDS011;55464;48.266;14.188;2023-06-19T02:03:02;8.10;;;6.00;;
68475;SDS011;55464;48.266;14.188;2023-06-19T02:05:29;7.07;;;5.85;;
68475;SDS011;55464;48.266;14.188;2023-06-19T02:07:57;10.45;;;6.03;;
68475;SDS011;55464;48.266;14.188;2023-06-19T02:10:23;6.85;;;6.03;;
68475;SDS011;55464;48.266;14.188;2023-06-19T02:12:48;8.20;;;5.88;;
68475;SDS011;55464;48.266;14.188;2023-06-19T02:15:14;8.77;;;5.70;;
68475;SDS011;55464;48.266;14.188;2023-06-19T02:17:39;8.60;;;5.65;;
68475;SDS011;55464;48.266;14.188;2023-06-19T02:20:07;6.93;;;5.75;;
68475;SDS011;55464;48.266;14.188;2023-06-19T02:22:39;8.57;;;5.40;;
68475;SDS011;55464;48.266;14.188;2023-06-19T02:25:06;7.45;;;5.57;;
68475;SDS011;55464;48.266;14.188;2023-06-19T02:27:32;7.97;;;6.10;;
68475;SDS011;55464;48.266;14.188;2023-06-19T02:29:57;8.27;;;6.50;;
68475;SDS011;55464;48.266;14.188;2023-06-19T02:32:22;9.73;;;6.43;;
68475;SDS011;55464;48.266;14.188;2023-06-19T02:34:48;8.13;;;5.93;;
68475;SDS011;55464;48.266;14.188;2023-06-19T02:37:13;7.30;;;5.80;;
68475;SDS011;55464;48.266;14.188;2023-06-19T02:39:39;6.95;;;5.57;;
68475;SDS011;55464;48.266;14.188;2023-06-19T02:42:04;10.45;;;6.15;;
68475;SDS011;55464;48.266;14.188;2023-06-19T02:44:30;8.90;;;5.93;;
68475;SDS011;55464;48.266;14.188;2023-06-19T02:46:55;9.60;;;6.15;;
68475;SDS011;55464;48.266;14.188;2023-06-19T02:49:20;8.82;;;6.20;;
68475;SDS011;55464;48.266;14.188;2023-06-19T02:51:46;11.10;;;5.95;;
68475;SDS011;55464;48.266;14.188;2023-06-19T02:54:11;8.02;;;6.07;;
68475;SDS011;55464;48.266;14.188;2023-06-19T02:56:37;8.93;;;6.55;;
68475;SDS011;55464;48.266;14.188;2023-06-19T02:59:03;6.57;;;5.78;;
68475;SDS011;55464;48.266;14.188;2023-06-19T03:01:29;10.57;;;6.32;;
68475;SDS011;55464;48.266;14.188;2023-06-19T03:03:55;9.02;;;6.43;;
68475;SDS011;55464;48.266;14.188;2023-06-19T03:06:20;7.70;;;5.88;;
68475;SDS011;55464;48.266;14.188;2023-06-19T03:08:46;8.55;;;6.22;;
68475;SDS011;55464;48.266;14.188;2023-06-19T03:11:11;8.55;;;6.00;;
68475;SDS011;55464;48.266;14.188;2023-06-19T03:13:52;8.18;;;6.07;;
68475;SDS011;55464;48.266;14.188;2023-06-19T03:16:19;10.05;;;6.80;;
68475;SDS011;55464;48.266;14.188;2023-06-19T03:18:45;8.15;;;6.32;;
68475;SDS011;55464;48.266;14.188;2023-06-19T03:21:11;8.38;;;6.70;;
68475;SDS011;55464;48.266;14.188;2023-06-19T03:23:37;8.45;;;6.28;;
68475;SDS011;55464;48.266;14.188;2023-06-19T03:26:02;8.18;;;6.00;;
68475;SDS011;55464;48.266;14.188;2023-06-19T03:28:28;8.65;;;6.88;;
68475;SDS011;55464;48.266;14.188;2023-06-19T03:30:54;7.57;;;6.63;;
68475;SDS011;55464;48.266;14.188;2023-06-19T03:33:20;10.18;;;7.18;;
68475;SDS011;55464;48.266;14.188;2023-06-19T03:35:45;10.30;;;6.65;;
68475;SDS011;55464;48.266;14.188;2023-06-19T03:38:10;8.57;;;6.40;;
68475;SDS011;55464;48.266;14.188;2023-06-19T03:40:36;9.70;;;6.45;;
68475;SDS011;55464;48.266;14.188;2023-06-19T03:43:01;10.82;;;6.22;;
68475;SDS011;55464;48.266;14.188;2023-06-19T03:45:27;8.35;;;6.10;;
68475;SDS011;55464;48.266;14.188;2023-06-19T03:47:52;7.30;;;5.80;;
68475;SDS011;55464;48.266;14.188;2023-06-19T03:50:18;7.05;;;6.00;;
68475;SDS011;55464;48.266;14.188;2023-06-19T03:52:43;7.60;;;6.55;;
68475;SDS011;55464;48.266;14.188;2023-06-19T03:55:09;8.15;;;5.93;;
68475;SDS011;55464;48.266;14.188;2023-06-19T03:57:34;7.47;;;6.20;;
68475;SDS011;55464;48.266;14.188;2023-06-19T04:00:00;7.70;;;6.32;;
68475;SDS011;55464;48.266;14.188;2023-06-19T04:02:25;7.57;;;5.95;;
68475;SDS011;55464;48.266;14.188;2023-06-19T04:04:51;8.73;;;6.32;;
68475;SDS011;55464;48.266;14.188;2023-06-19T04:07:16;13.45;;;6.60;;
68475;SDS011;55464;48.266;14.188;2023-06-19T04:09:41;9.75;;;6.72;;
68475;SDS011;55464;48.266;14.188;2023-06-19T04:12:07;11.02;;;6.45;;
68475;SDS011;55464;48.266;14.188;2023-06-19T04:14:33;7.70;;;6.25;;
68475;SDS011;55464;48.266;14.188;2023-06-19T04:16:58;7.72;;;5.97;;
68475;SDS011;55464;48.266;14.188;2023-06-19T04:19:23;8.88;;;6.72;;
68475;SDS011;55464;48.266;14.188;2023-06-19T04:21:49;9.68;;;7.18;;
68475;SDS011;55464;48.266;14.188;2023-06-19T04:24:14;9.90;;;6.65;;
68475;SDS011;55464;48.266;14.188;2023-06-19T04:26:39;7.47;;;6.35;;
68475;SDS011;55464;48.266;14.188;2023-06-19T04:29:07;9.93;;;6.95;;
68475;SDS011;55464;48.266;14.188;2023-06-19T04:31:32;8.55;;;6.53;;
68475;SDS011;55464;48.266;14.188;2023-06-19T04:33:58;8.60;;;6.68;;
68475;SDS011;55464;48.266;14.188;2023-06-19T04:36:23;11.98;;;6.25;;
68475;SDS011;55464;48.266;14.188;2023-06-19T04:38:49;11.35;;;6.68;;
68475;SDS011;55464;48.266;14.188;2023-06-19T04:41:17;9.52;;;5.95;;
68475;SDS011;55464;48.266;14.188;2023-06-19T04:43:42;8.77;;;6.57;;
68475;SDS011;55464;48.266;14.188;2023-06-19T04:46:08;12.80;;;7.00;;
68475;SDS011;55464;48.266;14.188;2023-06-19T04:48:33;14.00;;;7.28;;
68475;SDS011;55464;48.266;14.188;2023-06-19T04:51:01;10.57;;;7.18;;
68475;SDS011;55464;48.266;14.188;2023-06-19T04:53:27;9.48;;;6.95;;
68475;SDS011;55464;48.266;14.188;2023-06-19T04:55:52;8.43;;;6.18;;
68475;SDS011;55464;48.266;14.188;2023-06-19T04:58:20;11.45;;;6.88;;
68475;SDS011;55464;48.266;14.188;2023-06-19T05:00:46;13.25;;;6.70;;
68475;SDS011;55464;48.266;14.188;2023-06-19T05:03:19;11.15;;;6.40;;
68475;SDS011;55464;48.266;14.188;2023-06-19T05:05:44;11.43;;;6.32;;
68475;SDS011;55464;48.266;14.188;2023-06-19T05:08:10;9.70;;;7.10;;
68475;SDS011;55464;48.266;14.188;2023-06-19T05:10:36;10.05;;;6.32;;
68475;SDS011;55464;48.266;14.188;2023-06-19T05:13:01;10.90;;;6.85;;
68475;SDS011;55464;48.266;14.188;2023-06-19T05:15:27;8.65;;;6.57;;
68475;SDS011;55464;48.266;14.188;2023-06-19T05:17:53;10.35;;;6.10;;
68475;SDS011;55464;48.266;14.188;2023-06-19T05:20:18;10.63;;;6.93;;
68475;SDS011;55464;48.266;14.188;2023-06-19T05:22:44;9.45;;;6.38;;
68475;SDS011;55464;48.266;14.188;2023-06-19T05:25:09;9.18;;;6.35;;
68475;SDS011;55464;48.266;14.188;2023-06-19T05:27:34;8.77;;;6.72;;
68475;SDS011;55464;48.266;14.188;2023-06-19T05:30:00;8.00;;;6.28;;
68475;SDS011;55464;48.266;14.188;2023-06-19T05:32:25;9.18;;;6.85;;
68475;SDS011;55464;48.266;14.188;2023-06-19T05:34:51;10.25;;;6.43;;
68475;SDS011;55464;48.266;14.188;2023-06-19T05:37:16;13.25;;;7.00;;
68475;SDS011;55464;48.266;14.188;2023-06-19T05:39:42;11.50;;;6.60;;
68475;SDS011;55464;48.266;14.188;2023-06-19T05:42:07;9.90;;;7.22;;
68475;SDS011;55464;48.266;14.188;2023-06-19T05:44:32;9.23;;;7.38;;
68475;SDS011;55464;48.266;14.188;2023-06-19T05:46:58;10.73;;;7.00;;
68475;SDS011;55464;48.266;14.188;2023-06-19T05:49:23;10.15;;;6.88;;
68475;SDS011;55464;48.266;14.188;2023-06-19T05:51:49;12.18;;;7.47;;
68475;SDS011;55464;48.266;14.188;2023-06-19T05:54:14;9.90;;;6.93;;
68475;SDS011;55464;48.266;14.188;2023-06-19T05:56:39;7.18;;;6.10;;
68475;SDS011;55464;48.266;14.188;2023-06-19T05:59:05;10.38;;;6.80;;
68475;SDS011;55464;48.266;14.188;2023-06-19T06:01:30;10.10;;;7.00;;
68475;SDS011;55464;48.266;14.188;2023-06-19T06:03:56;7.72;;;6.15;;
68475;SDS011;55464;48.266;14.188;2023-06-19T06:06:25;10.02;;;6.50;;
68475;SDS011;55464;48.266;14.188;2023-06-19T06:08:51;8.70;;;6.75;;
68475;SDS011;55464;48.266;14.188;2023-06-19T06:11:16;8.32;;;6.78;;
68475;SDS011;55464;48.266;14.188;2023-06-19T06:13:42;8.85;;;7.03;;
68475;SDS011;55464;48.266;14.188;2023-06-19T06:16:08;8.88;;;6.80;;
68475;SDS011;55464;48.266;14.188;2023-06-19T06:18:33;9.38;;;6.93;;
68475;SDS011;55464;48.266;14.188;2023-06-19T06:20:59;8.50;;;6.70;;
68475;SDS011;55464;48.266;14.188;2023-06-19T06:23:24;11.60;;;7.53;;
68475;SDS011;55464;48.266;14.188;2023-06-19T06:25:50;9.63;;;6.80;;
68475;SDS011;55464;48.266;14.188;2023-06-19T06:28:15;9.20;;;6.60;;
68475;SDS011;55464;48.266;14.188;2023-06-19T06:30:42;10.48;;;7.03;;
68475;SDS011;55464;48.266;14.188;2023-06-19T06:33:08;8.93;;;7.28;;
68475;SDS011;55464;48.266;14.188;2023-06-19T06:35:33;13.25;;;7.70;;
68475;SDS011;55464;48.266;14.188;2023-06-19T06:38:00;11.65;;;7.63;;
68475;SDS011;55464;48.266;14.188;2023-06-19T06:40:26;9.73;;;7.15;;
68475;SDS011;55464;48.266;14.188;2023-06-19T06:42:52;13.88;;;7.72;;
68475;SDS011;55464;48.266;14.188;2023-06-19T06:45:18;12.45;;;7.18;;
68475;SDS011;55464;48.266;14.188;2023-06-19T06:47:43;11.13;;;6.95;;
68475;SDS011;55464;48.266;14.188;2023-06-19T06:50:09;9.75;;;7.10;;
68475;SDS011;55464;48.266;14.188;2023-06-19T06:52:35;13.63;;;8.05;;
68475;SDS011;55464;48.266;14.188;2023-06-19T06:55:00;9.00;;;6.78;;
68475;SDS011;55464;48.266;14.188;2023-06-19T06:57:25;9.73;;;7.60;;
68475;SDS011;55464;48.266;14.188;2023-06-19T06:59:52;9.05;;;5.90;;
68475;SDS011;55464;48.266;14.188;2023-06-19T07:02:17;10.68;;;6.57;;
68475;SDS011;55464;48.266;14.188;2023-06-19T07:04:43;8.88;;;6.47;;
68475;SDS011;55464;48.266;14.188;2023-06-19T07:07:08;8.02;;;6.15;;
68475;SDS011;55464;48.266;14.188;2023-06-19T07:09:34;12.48;;;6.85;;
68475;SDS011;55464;48.266;14.188;2023-06-19T07:12:00;8.48;;;6.07;;
68475;SDS011;55464;48.266;14.188;2023-06-19T07:14:29;9.65;;;6.88;;
68475;SDS011;55464;48.266;14.188;2023-06-19T07:16:54;7.75;;;6.13;;
68475;SDS011;55464;48.266;14.188;2023-06-19T07:19:20;8.70;;;6.38;;
68475;SDS011;55464;48.266;14.188;2023-06-19T07:21:45;7.45;;;6.50;;
68475;SDS011;55464;48.266;14.188;2023-06-19T07:24:11;8.40;;;6.45;;
68475;SDS011;55464;48.266;14.188;2023-06-19T07:26:36;8.20;;;6.93;;
68475;SDS011;55464;48.266;14.188;2023-06-19T07:29:01;10.88;;;6.95;;
68475;SDS011;55464;48.266;14.188;2023-06-19T07:31:27;9.00;;;6.72;;
68475;SDS011;55464;48.266;14.188;2023-06-19T07:33:53;10.02;;;7.07;;
68475;SDS011;55464;48.266;14.188;2023-06-19T07:36:18;8.57;;;6.50;;
68475;SDS011;55464;48.266;14.188;2023-06-19T07:38:44;9.15;;;6.80;;
68475;SDS011;55464;48.266;14.188;2023-06-19T07:41:10;9.30;;;6.53;;
68475;SDS011;55464;48.266;14.188;2023-06-19T07:43:36;10.60;;;6.65;;
68475;SDS011;55464;48.266;14.188;2023-06-19T07:46:02;10.35;;;6.60;;
68475;SDS011;55464;48.266;14.188;2023-06-19T07:48:28;11.88;;;7.30;;
68475;SDS011;55464;48.266;14.188;2023-06-19T07:50:53;11.00;;;7.03;;
68475;SDS011;55464;48.266;14.188;2023-06-19T07:53:19;9.68;;;7.50;;
68475;SDS011;55464;48.266;14.188;2023-06-19T07:55:45;9.80;;;7.10;;
68475;SDS011;55464;48.266;14.188;2023-06-19T07:58:10;10.55;;;7.68;;
68475;SDS011;55464;48.266;14.188;2023-06-19T08:00:35;11.30;;;6.97;;
68475;SDS011;55464;48.266;14.188;2023-06-19T08:03:01;8.60;;;7.10;;
68475;SDS011;55464;48.266;14.188;2023-06-19T08:05:26;12.55;;;6.38;;
68475;SDS011;55464;48.266;14.188;2023-06-19T08:07:52;10.73;;;6.80;;
68475;SDS011;55464;48.266;14.188;2023-06-19T08:10:17;10.18;;;6.53;;
68475;SDS011;55464;48.266;14.188;2023-06-19T08:12:43;9.50;;;6.90;;
68475;SDS011;55464;48.266;14.188;2023-06-19T08:15:10;11.43;;;7.72;;
68475;SDS011;55464;48.266;14.188;2023-06-19T08:17:36;13.25;;;7.45;;
68475;SDS011;55464;48.266;14.188;2023-06-19T08:20:01;9.63;;;6.95;;
68475;SDS011;55464;48.266;14.188;2023-06-19T08:22:30;12.00;;;7.15;;
68475;SDS011;55464;48.266;14.188;2023-06-19T08:24:55;12.70;;;7.43;;
68475;SDS011;55464;48.266;14.188;2023-06-19T08:27:21;9.55;;;6.93;;
68475;SDS011;55464;48.266;14.188;2023-06-19T08:29:46;10.23;;;7.15;;
68475;SDS011;55464;48.266;14.188;2023-06-19T08:32:12;12.95;;;8.48;;
68475;SDS011;55464;48.266;14.188;2023-06-19T08:34:37;15.52;;;8.00;;
68475;SDS011;55464;48.266;14.188;2023-06-19T08:37:03;11.40;;;8.25;;
68475;SDS011;55464;48.266;14.188;2023-06-19T08:39:29;10.20;;;7.95;;
68475;SDS011;55464;48.266;14.188;2023-06-19T08:41:55;11.25;;;7.35;;
68475;SDS011;55464;48.266;14.188;2023-06-19T08:44:20;11.75;;;7.80;;
68475;SDS011;55464;48.266;14.188;2023-06-19T08:46:45;14.38;;;8.45;;
68475;SDS011;55464;48.266;14.188;2023-06-19T08:49:11;12.63;;;7.78;;
68475;SDS011;55464;48.266;14.188;2023-06-19T08:51:37;11.15;;;7.35;;
68475;SDS011;55464;48.266;14.188;2023-06-19T08:54:03;13.75;;;8.07;;
68475;SDS011;55464;48.266;14.188;2023-06-19T08:56:31;12.82;;;7.78;;
68475;SDS011;55464;48.266;14.188;2023-06-19T08:59:20;17.02;;;8.27;;
68475;SDS011;55464;48.266;14.188;2023-06-19T09:01:51;12.90;;;8.43;;
68475;SDS011;55464;48.266;14.188;2023-06-19T09:04:27;16.67;;;8.70;;
68475;SDS011;55464;48.266;14.188;2023-06-19T09:09:20;12.10;;;7.78;;
68475;SDS011;55464;48.266;14.188;2023-06-19T09:14:45;16.35;;;8.52;;
68475;SDS011;55464;48.266;14.188;2023-06-19T09:17:20;13.95;;;7.10;;
68475;SDS011;55464;48.266;14.188;2023-06-19T09:19:49;13.68;;;8.25;;
68475;SDS011;55464;48.266;14.188;2023-06-19T09:22:17;13.80;;;7.78;;
68475;SDS011;55464;48.266;14.188;2023-06-19T09:24:43;11.75;;;7.82;;
68475;SDS011;55464;48.266;14.188;2023-06-19T09:27:15;11.13;;;7.65;;
68475;SDS011;55464;48.266;14.188;2023-06-19T09:29:46;9.90;;;7.75;;
68475;SDS011;55464;48.266;14.188;2023-06-19T09:34:44;8.65;;;7.30;;
68475;SDS011;55464;48.266;14.188;2023-06-19T09:37:09;10.23;;;7.35;;
68475;SDS011;55464;48.266;14.188;2023-06-19T09:39:36;11.52;;;7.22;;
68475;SDS011;55464;48.266;14.188;2023-06-19T09:42:02;12.57;;;7.32;;
68475;SDS011;55464;48.266;14.188;2023-06-19T09:44:31;10.30;;;7.15;;
68475;SDS011;55464;48.266;14.188;2023-06-19T09:47:01;12.43;;;7.50;;
68475;SDS011;55464;48.266;14.188;2023-06-19T09:49:32;11.13;;;7.43;;
68475;SDS011;55464;48.266;14.188;2023-06-19T09:52:00;10.65;;;6.88;;
68475;SDS011;55464;48.266;14.188;2023-06-19T09:54:27;11.98;;;6.97;;
68475;SDS011;55464;48.266;14.188;2023-06-19T09:56:54;9.13;;;7.20;;
68475;SDS011;55464;48.266;14.188;2023-06-19T09:59:23;13.45;;;7.45;;
68475;SDS011;55464;48.266;14.188;2023-06-19T10:01:50;10.30;;;7.30;;
68475;SDS011;55464;48.266;14.188;2023-06-19T10:04:15;11.73;;;7.18;;
68475;SDS011;55464;48.266;14.188;2023-06-19T10:06:46;11.90;;;6.90;;
68475;SDS011;55464;48.266;14.188;2023-06-19T10:09:13;9.55;;;7.25;;
68475;SDS011;55464;48.266;14.188;2023-06-19T10:14:18;13.95;;;7.35;;
68475;SDS011;55464;48.266;14.188;2023-06-19T10:16:47;12.02;;;7.72;;
68475;SDS011;55464;48.266;14.188;2023-06-19T10:19:16;13.23;;;7.85;;
68475;SDS011;55464;48.266;14.188;2023-06-19T10:21:47;10.00;;;7.28;;
68475;SDS011;55464;48.266;14.188;2023-06-19T10:24:15;10.75;;;7.75;;
68475;SDS011;55464;48.266;14.188;2023-06-19T10:26:54;10.90;;;7.22;;
68475;SDS011;55464;48.266;14.188;2023-06-19T10:29:22;10.50;;;7.10;;
68475;SDS011;55464;48.266;14.188;2023-06-19T10:31:47;9.20;;;6.72;;
68475;SDS011;55464;48.266;14.188;2023-06-19T10:34:12;10.55;;;7.32;;
68475;SDS011;55464;48.266;14.188;2023-06-19T10:36:38;12.30;;;7.50;;
68475;SDS011;55464;48.266;14.188;2023-06-19T10:39:03;9.18;;;7.68;;
68475;SDS011;55464;48.266;14.188;2023-06-19T10:41:29;9.60;;;7.20;;
68475;SDS011;55464;48.266;14.188;2023-06-19T10:44:03;9.80;;;7.65;;
68475;SDS011;55464;48.266;14.188;2023-06-19T10:46:31;11.32;;;7.32;;
68475;SDS011;55464;48.266;14.188;2023-06-19T10:49:00;10.70;;;6.57;;
68475;SDS011;55464;48.266;14.188;2023-06-19T10:51:27;9.05;;;7.10;;
68475;SDS011;55464;48.266;14.188;2023-06-19T10:53:57;9.05;;;6.93;;
68475;SDS011;55464;48.266;14.188;2023-06-19T10:56:22;12.73;;;7.00;;
68475;SDS011;55464;48.266;14.188;2023-06-19T10:58:56;10.60;;;7.45;;
68475;SDS011;55464;48.266;14.188;2023-06-19T11:02:07;9.75;;;7.00;;
68475;SDS011;55464;48.266;14.188;2023-06-19T11:04:25;10.13;;;6.10;;
68475;SDS011;55464;48.266;14.188;2023-06-19T11:06:51;7.90;;;6.30;;
68475;SDS011;55464;48.266;14.188;2023-06-19T11:09:17;11.77;;;6.15;;
68475;SDS011;55464;48.266;14.188;2023-06-19T11:11:47;12.15;;;6.20;;
68475;SDS011;55464;48.266;14.188;2023-06-19T11:14:14;8.83;;;5.90;;
68475;SDS011;55464;48.266;14.188;2023-06-19T11:16:41;8.63;;;6.53;;
68475;SDS011;55464;48.266;14.188;2023-06-19T11:19:09;9.10;;;5.78;;
68475;SDS011;55464;48.266;14.188;2023-06-19T11:21:39;9.77;;;5.95;;
68475;SDS011;55464;48.266;14.188;2023-06-19T11:24:06;8.02;;;6.40;;
68475;SDS011;55464;48.266;14.188;2023-06-19T11:26:39;9.27;;;5.88;;
68475;SDS011;55464;48.266;14.188;2023-06-19T11:31:40;7.90;;;6.53;;
68475;SDS011;55464;48.266;14.188;2023-06-19T11:34:06;8.45;;;6.25;;
68475;SDS011;55464;48.266;14.188;2023-06-19T11:36:31;7.50;;;5.75;;
68475;SDS011;55464;48.266;14.188;2023-06-19T11:38:56;9.88;;;6.30;;
68475;SDS011;55464;48.266;14.188;2023-06-19T11:41:26;6.78;;;5.80;;
68475;SDS011;55464;48.266;14.188;2023-06-19T11:46:32;7.22;;;5.78;;
68475;SDS011;55464;48.266;14.188;2023-06-19T11:49:08;7.53;;;5.85;;
68475;SDS011;55464;48.266;14.188;2023-06-19T11:51:34;8.35;;;6.07;;
68475;SDS011;55464;48.266;14.188;2023-06-19T11:54:00;10.18;;;5.90;;
68475;SDS011;55464;48.266;14.188;2023-06-19T11:56:26;7.60;;;5.95;;
68475;SDS011;55464;48.266;14.188;2023-06-19T11:58:51;7.88;;;6.30;;
68475;SDS011;55464;48.266;14.188;2023-06-19T12:01:17;7.20;;;6.40;;
68475;SDS011;55464;48.266;14.188;2023-06-19T12:03:42;7.53;;;6.38;;
68475;SDS011;55464;48.266;14.188;2023-06-19T12:06:08;7.10;;;5.50;;
68475;SDS011;55464;48.266;14.188;2023-06-19T12:08:34;7.63;;;6.07;;
68475;SDS011;55464;48.266;14.188;2023-06-19T12:11:02;8.93;;;5.75;;
68475;SDS011;55464;48.266;14.188;2023-06-19T12:13:28;7.47;;;6.38;;
68475;SDS011;55464;48.266;14.188;2023-06-19T12:15:53;8.00;;;5.80;;
68475;SDS011;55464;48.266;14.188;2023-06-19T12:18:18;9.98;;;7.07;;
68475;SDS011;55464;48.266;14.188;2023-06-19T12:20:44;10.38;;;6.40;;
68475;SDS011;55464;48.266;14.188;2023-06-19T12:23:09;9.48;;;6.18;;
68475;SDS011;55464;48.266;14.188;2023-06-19T12:25:35;9.13;;;6.05;;
68475;SDS011;55464;48.266;14.188;2023-06-19T12:28:00;7.88;;;5.70;;
68475;SDS011;55464;48.266;14.188;2023-06-19T12:30:25;7.50;;;6.43;;
68475;SDS011;55464;48.266;14.188;2023-06-19T12:32:51;8.65;;;6.00;;
68475;SDS011;55464;48.266;14.188;2023-06-19T12:35:16;7.40;;;6.28;;
68475;SDS011;55464;48.266;14.188;2023-06-19T12:37:43;10.25;;;6.43;;
68475;SDS011;55464;48.266;14.188;2023-06-19T12:40:08;6.93;;;6.22;;
68475;SDS011;55464;48.266;14.188;2023-06-19T12:42:36;7.57;;;6.28;;
68475;SDS011;55464;48.266;14.188;2023-06-19T12:45:02;11.88;;;6.65;;
68475;SDS011;55464;48.266;14.188;2023-06-19T12:47:28;6.38;;;5.78;;
68475;SDS011;55464;48.266;14.188;2023-06-19T12:49:53;7.10;;;5.97;;
68475;SDS011;55464;48.266;14.188;2023-06-19T12:52:19;8.07;;;6.05;;
68475;SDS011;55464;48.266;14.188;2023-06-19T12:54:45;17.58;;;8.02;;
68475;SDS011;55464;48.266;14.188;2023-06-19T12:57:10;8.43;;;6.05;;
68475;SDS011;55464;48.266;14.188;2023-06-19T12:59:36;6.88;;;5.47;;
68475;SDS011;55464;48.266;14.188;2023-06-19T13:02:01;8.00;;;5.07;;
68475;SDS011;55464;48.266;14.188;2023-06-19T13:04:27;7.68;;;5.13;;
68475;SDS011;55464;48.266;14.188;2023-06-19T13:06:52;8.20;;;5.00;;
68475;SDS011;55464;48.266;14.188;2023-06-19T13:09:18;6.22;;;4.72;;
68475;SDS011;55464;48.266;14.188;2023-06-19T13:11:43;8.20;;;4.78;;
68475;SDS011;55464;48.266;14.188;2023-06-19T13:14:09;7.43;;;5.00;;
68475;SDS011;55464;48.266;14.188;2023-06-19T13:16:34;9.65;;;5.35;;
68475;SDS011;55464;48.266;14.188;2023-06-19T13:19:00;7.18;;;5.25;;
68475;SDS011;55464;48.266;14.188;2023-06-19T13:21:25;5.32;;;4.82;;
68475;SDS011;55464;48.266;14.188;2023-06-19T13:23:50;10.85;;;5.20;;
68475;SDS011;55464;48.266;14.188;2023-06-19T13:26:16;7.57;;;5.05;;
68475;SDS011;55464;48.266;14.188;2023-06-19T13:28:41;5.80;;;5.15;;
68475;SDS011;55464;48.266;14.188;2023-06-19T13:31:07;6.45;;;5.20;;
68475;SDS011;55464;48.266;14.188;2023-06-19T13:33:32;5.45;;;4.93;;
68475;SDS011;55464;48.266;14.188;2023-06-19T13:35:58;7.90;;;5.68;;
68475;SDS011;55464;48.266;14.188;2023-06-19T13:38:23;8.15;;;5.40;;
68475;SDS011;55464;48.266;14.188;2023-06-19T13:40:48;10.35;;;5.80;;
68475;SDS011;55464;48.266;14.188;2023-06-19T13:43:14;5.25;;;4.75;;
68475;SDS011;55464;48.266;14.188;2023-06-19T13:45:40;6.70;;;4.57;;
68475;SDS011;55464;48.266;14.188;2023-06-19T13:48:06;6.65;;;4.90;;
68475;SDS011;55464;48.266;14.188;2023-06-19T13:50:31;6.55;;;5.00;;
68475;SDS011;55464;48.266;14.188;2023-06-19T13:52:58;6.00;;;4.90;;
68475;SDS011;55464;48.266;14.188;2023-06-19T13:55:24;5.95;;;4.75;;
68475;SDS011;55464;48.266;14.188;2023-06-19T13:57:49;8.57;;;4.88;;
68475;SDS011;55464;48.266;14.188;2023-06-19T14:00:15;5.03;;;4.53;;
68475;SDS011;55464;48.266;14.188;2023-06-19T14:02:41;5.55;;;4.22;;
68475;SDS011;55464;48.266;14.188;2023-06-19T14:05:07;4.75;;;4.35;;
68475;SDS011;55464;48.266;14.188;2023-06-19T14:07:33;6.25;;;4.32;;
68475;SDS011;55464;48.266;14.188;2023-06-19T14:10:00;6.50;;;3.78;;
68475;SDS011;55464;48.266;14.188;2023-06-19T14:12:25;6.00;;;4.35;;
68475;SDS011;55464;48.266;14.188;2023-06-19T14:14:51;4.22;;;3.83;;
68475;SDS011;55464;48.266;14.188;2023-06-19T14:17:17;6.40;;;4.07;;
68475;SDS011;55464;48.266;14.188;2023-06-19T14:19:42;4.75;;;4.25;;
68475;SDS011;55464;48.266;14.188;2023-06-19T14:22:07;4.95;;;4.13;;
68475;SDS011;55464;48.266;14.188;2023-06-19T14:24:33;6.25;;;4.22;;
68475;SDS011;55464;48.266;14.188;2023-06-19T14:26:58;5.00;;;3.97;;
68475;SDS011;55464;48.266;14.188;2023-06-19T14:29:23;6.03;;;3.80;;
68475;SDS011;55464;48.266;14.188;2023-06-19T14:31:52;5.40;;;3.60;;
68475;SDS011;55464;48.266;14.188;2023-06-19T14:34:18;4.45;;;3.80;;
68475;SDS011;55464;48.266;14.188;2023-06-19T14:36:45;4.15;;;3.63;;
68475;SDS011;55464;48.266;14.188;2023-06-19T14:39:11;4.13;;;3.60;;
68475;SDS011;55464;48.266;14.188;2023-06-19T14:41:37;4.50;;;4.05;;
68475;SDS011;55464;48.266;14.188;2023-06-19T14:44:03;6.15;;;4.47;;
68475;SDS011;55464;48.266;14.188;2023-06-19T14:46:29;4.20;;;3.67;;
68475;SDS011;55464;48.266;14.188;2023-06-19T14:48:56;5.00;;;3.80;;
68475;SDS011;55464;48.266;14.188;2023-06-19T14:51:23;4.45;;;4.05;;